Time;durP1;ratioP1;P1;durP2;ratioP2;P2;SDS_P1;SDS_P2;PMS_P1;PMS_P2;Temp;Humidity;BMP_temperature;BMP_pressure;BME280_temperature;BME280_humidity;BME280_pressure;Samples;Min_cycle;Max_cycle;Signal;HPM_P1;HPM_P2
2023/12/08 00:01:36;;;;;;;69.20;39.80;;;;;;;1.80;100.00;100587.56;179100;1254;46027;-83
2023/12/08 00:05:40;;;;;;;85.10;45.20;;;;;;;1.86;100.00;100588.71;179535;1257;44511;-84
2023/12/08 00:09:43;;;;;;;117.00;50.60;;;;;;;1.89;100.00;100591.41;180141;1253;45974;-80
2023/12/08 00:13:46;;;;;;;82.60;51.20;;;;;;;1.93;100.00;100590.88;181131;1254;43535;-80
2023/12/08 00:17:50;;;;;;;76.30;48.40;;;;;;;1.93;100.00;100594.02;180851;1254;57871;-83
2023/12/08 00:21:53;;;;;;;104.40;49.10;;;;;;;1.99;100.00;100596.92;179687;1253;44876;-84
2023/12/08 00:25:56;;;;;;;88.10;51.80;;;;;;;2.08;100.00;100596.92;178619;1255;46291;-84
2023/12/08 00:30:01;;;;;;;82.40;45.10;;;;;;;2.03;100.00;100596.58;178429;1254;45864;-84
2023/12/08 00:34:05;;;;;;;90.90;46.60;;;;;;;1.91;100.00;100598.82;178798;1255;45994;-85
2023/12/08 00:38:09;;;;;;;147.10;47.60;;;;;;;1.79;100.00;100595.29;178915;1254;57675;-83
2023/12/08 00:42:12;;;;;;;70.90;42.90;;;;;;;1.60;100.00;100588.88;179042;1254;44452;-84
2023/12/08 00:46:16;;;;;;;82.10;44.60;;;;;;;1.39;100.00;100588.27;178500;1254;45988;-83
2023/12/08 00:50:19;;;;;;;107.80;43.20;;;;;;;1.34;100.00;100587.60;178424;1254;46114;-84
2023/12/08 00:54:23;;;;;;;124.60;49.10;;;;;;;1.27;100.00;100583.84;178284;1254;45966;-83
2023/12/08 00:58:26;;;;;;;63.50;41.20;;;;;;;1.20;100.00;100582.52;178277;1257;58643;-84
2023/12/08 01:02:29;;;;;;;68.90;36.80;;;;;;;1.10;100.00;100582.21;178342;1253;46097;-83
2023/12/08 01:06:33;;;;;;;70.40;36.80;;;;;;;1.04;100.00;100583.49;178255;1254;45974;-84
2023/12/08 01:10:36;;;;;;;54.50;36.80;;;;;;;0.98;100.00;100586.67;177932;1254;46540;-84
2023/12/08 01:14:39;;;;;;;74.70;43.10;;;;;;;0.97;100.00;100590.55;178337;1254;46031;-83
2023/12/08 01:18:42;;;;;;;65.60;40.80;;;;;;;0.94;100.00;100588.02;178590;1254;58221;-84
2023/12/08 01:22:45;;;;;;;71.40;42.80;;;;;;;0.99;100.00;100583.15;178674;1253;46178;-84
2023/12/08 01:26:48;;;;;;;90.50;51.00;;;;;;;1.04;100.00;100570.89;178808;1254;45974;-84
2023/12/08 01:30:51;;;;;;;107.70;61.40;;;;;;;1.11;100.00;100565.55;178233;1253;46190;-85
2023/12/08 01:34:54;;;;;;;69.70;43.10;;;;;;;1.13;100.00;100559.90;178569;1257;46096;-83
2023/12/08 01:38:57;;;;;;;73.80;42.70;;;;;;;1.19;100.00;100552.36;178957;1253;59405;-85
2023/12/08 01:43:00;;;;;;;69.80;47.60;;;;;;;1.24;100.00;100549.20;179174;1253;46113;-83
2023/12/08 01:47:06;;;;;;;77.40;44.00;;;;;;;1.26;100.00;100545.44;178037;1254;46133;-84
2023/12/08 01:51:15;;;;;;;76.70;45.40;;;;;;;1.28;100.00;100540.12;178907;1252;46423;-84
2023/12/08 01:55:19;;;;;;;71.50;45.70;;;;;;;1.34;100.00;100533.08;178768;1253;45997;-85
2023/12/08 01:59:22;;;;;;;62.20;42.70;;;;;;;1.40;100.00;100533.55;178305;1253;57485;-85
2023/12/08 02:03:27;;;;;;;68.70;43.00;;;;;;;1.45;100.00;100526.54;178812;1254;46547;-84
2023/12/08 02:07:31;;;;;;;74.60;40.80;;;;;;;1.45;100.00;100521.80;179041;1254;46107;-84
2023/12/08 02:11:35;;;;;;;70.60;43.50;;;;;;;1.43;100.00;100519.09;178538;1254;44595;-85
2023/12/08 02:15:39;;;;;;;69.30;49.50;;;;;;;1.38;100.00;100509.31;178315;1253;45994;-84
2023/12/08 02:19:42;;;;;;;73.80;43.40;;;;;;;1.30;100.00;100509.11;178908;1253;57950;-84
2023/12/08 02:23:48;;;;;;;70.40;43.80;;;;;;;1.23;100.00;100502.38;178977;1254;46117;-85
2023/12/08 02:27:52;;;;;;;69.30;48.40;;;;;;;1.15;100.00;100499.90;178933;1254;44245;-85
2023/12/08 02:32:07;;;;;;;74.20;44.50;;;;;;;0.99;100.00;100491.27;178213;1254;46050;-84
2023/12/08 02:36:13;;;;;;;80.50;48.40;;;;;;;0.83;100.00;100470.77;179232;1257;46071;-85
2023/12/08 02:40:17;;;;;;;65.00;44.60;;;;;;;0.69;100.00;100462.02;179336;1253;57955;-84
2023/12/08 02:44:21;;;;;;;74.00;46.20;;;;;;;0.62;100.00;100454.23;178443;1255;46006;-83
2023/12/08 02:48:24;;;;;;;79.00;46.30;;;;;;;0.59;100.00;100443.36;178501;1254;46133;-84
2023/12/08 02:52:27;;;;;;;69.30;41.60;;;;;;;0.52;100.00;100432.29;178226;1253;46096;-84
2023/12/08 02:56:30;;;;;;;75.20;45.60;;;;;;;0.46;100.00;100436.17;178215;1254;46014;-81
2023/12/08 03:00:33;;;;;;;66.90;41.50;;;;;;;0.37;100.00;100439.99;178290;1254;57890;-85
2023/12/08 03:04:36;;;;;;;75.20;47.70;;;;;;;0.26;100.00;100441.43;178080;1256;46008;-85
2023/12/08 03:08:40;;;;;;;73.90;41.40;;;;;;;0.19;100.00;100440.83;178373;1254;45993;-85
2023/12/08 03:12:43;;;;;;;66.90;41.60;;;;;;;0.14;100.00;100442.90;178260;1253;46094;-83
2023/12/08 03:16:49;;;;;;;75.80;47.50;;;;;;;0.13;100.00;100437.71;178502;1252;46079;-84
2023/12/08 03:20:53;;;;;;;77.00;44.60;;;;;;;0.09;100.00;100446.74;178312;1255;58436;-85
2023/12/08 03:24:56;;;;;;;69.10;40.80;;;;;;;0.05;100.00;100459.63;178316;1252;46060;-85
2023/12/08 03:28:59;;;;;;;82.40;44.50;;;;;;;0.02;100.00;100468.46;178573;1255;46089;-86
2023/12/08 03:33:03;;;;;;;74.40;44.00;;;;;;;-0.03;100.00;100461.30;178786;1253;46102;-84
2023/12/08 03:37:06;;;;;;;71.30;41.30;;;;;;;-0.10;100.00;100452.29;179002;1253;45991;-81
2023/12/08 03:41:11;;;;;;;87.50;44.40;;;;;;;-0.15;100.00;100449.84;181120;1252;57906;-83
2023/12/08 03:45:14;;;;;;;64.10;41.10;;;;;;;-0.16;100.00;100445.86;179958;1252;44476;-84
2023/12/08 03:49:18;;;;;;;71.80;41.20;;;;;;;-0.24;100.00;100440.89;179149;1253;44161;-84
2023/12/08 03:53:21;;;;;;;75.60;41.00;;;;;;;-0.41;100.00;100432.26;179667;1253;44111;-82
2023/12/08 03:57:24;;;;;;;76.60;40.90;;;;;;;-0.68;100.00;100432.63;178604;1253;46096;-84
2023/12/08 04:01:27;;;;;;;70.10;39.10;;;;;;;-0.81;100.00;100434.40;178040;1253;59545;-83
2023/12/08 04:05:30;;;;;;;84.80;37.80;;;;;;;-0.87;100.00;100428.17;178627;1252;46094;-83
2023/12/08 04:09:34;;;;;;;75.90;43.10;;;;;;;-0.94;100.00;100423.19;178401;1252;46029;-84
2023/12/08 04:13:39;;;;;;;68.10;39.50;;;;;;;-0.95;100.00;100423.39;178068;1253;46374;-83
2023/12/08 04:17:42;;;;;;;65.20;36.60;;;;;;;-1.01;100.00;100420.94;179019;1254;44320;-83
2023/12/08 04:21:45;;;;;;;58.10;33.30;;;;;;;-1.10;100.00;100420.52;179039;1253;58003;-82
2023/12/08 04:25:48;;;;;;;64.20;38.50;;;;;;;-1.29;100.00;100416.23;179082;1254;46118;-82
2023/12/08 04:29:52;;;;;;;82.00;42.40;;;;;;;-1.34;100.00;100410.83;178614;1254;45987;-82
2023/12/08 04:33:55;;;;;;;64.30;36.00;;;;;;;-1.38;100.00;100403.27;178593;1252;46020;-82
2023/12/08 04:37:58;;;;;;;60.60;34.70;;;;;;;-1.39;100.00;100406.61;179487;1252;45988;-82
2023/12/08 04:42:01;;;;;;;73.50;38.40;;;;;;;-1.36;100.00;100412.29;178856;1252;59258;-82
2023/12/08 04:46:04;;;;;;;60.90;35.90;;;;;;;-1.28;100.00;100406.98;179051;1252;46216;-82
2023/12/08 04:50:08;;;;;;;59.90;32.30;;;;;;;-1.15;100.00;100402.92;178286;1256;45927;-83
2023/12/08 04:54:11;;;;;;;56.90;29.00;;;;;;;-1.08;100.00;100410.71;178423;1252;46128;-81
2023/12/08 04:58:16;;;;;;;50.70;32.30;;;;;;;-1.11;100.00;100409.59;178690;1252;45879;-82
2023/12/08 05:02:19;;;;;;;45.50;31.60;;;;;;;-1.09;100.00;100412.33;178099;1253;58253;-82
2023/12/08 05:06:26;;;;;;;46.50;27.00;;;;;;;-1.02;100.00;100419.40;178772;1253;47334;-81
2023/12/08 05:10:29;;;;;;;48.90;25.50;;;;;;;-1.02;100.00;100420.80;179162;1252;46052;-81
2023/12/08 05:14:32;;;;;;;39.50;24.10;;;;;;;-1.06;100.00;100415.89;178736;1254;46014;-82
2023/12/08 05:18:35;;;;;;;44.40;28.40;;;;;;;-1.08;100.00;100418.20;178822;1255;46033;-81
2023/12/08 05:22:39;;;;;;;57.50;31.60;;;;;;;-1.08;100.00;100413.16;178282;1252;58145;-81
2023/12/08 05:26:42;;;;;;;62.30;37.10;;;;;;;-1.06;100.00;100405.96;178898;1254;46227;-81
2023/12/08 05:30:45;;;;;;;55.60;31.00;;;;;;;-1.03;100.00;100401.51;178977;1257;44367;-81
2023/12/08 05:34:48;;;;;;;43.70;26.60;;;;;;;-1.00;100.00;100392.88;177991;1253;46093;-82
2023/12/08 05:38:52;;;;;;;50.90;27.60;;;;;;;-0.99;100.00;100387.82;178815;1255;46078;-81
2023/12/08 05:42:55;;;;;;;44.10;25.80;;;;;;;-1.04;100.00;100380.13;179026;1252;58183;-81
2023/12/08 05:46:58;;;;;;;48.00;26.40;;;;;;;-1.05;100.00;100371.62;180662;1252;44466;-82
2023/12/08 05:51:03;;;;;;;55.90;31.00;;;;;;;-1.07;100.00;100374.84;178590;1252;46086;-81
2023/12/08 05:55:07;;;;;;;49.30;28.50;;;;;;;-1.10;100.00;100366.56;180001;1252;46069;-81
2023/12/08 05:59:11;;;;;;;42.70;25.40;;;;;;;-1.07;100.00;100350.83;179453;1253;46080;-80
2023/12/08 06:03:14;;;;;;;56.70;32.50;;;;;;;-1.07;100.00;100345.92;179758;1252;58703;-78
2023/12/08 06:07:17;;;;;;;36.10;25.80;;;;;;;-1.02;100.00;100339.85;177956;1253;45992;-79
2023/12/08 06:11:21;;;;;;;39.60;26.50;;;;;;;-1.03;100.00;100344.06;178281;1253;45996;-81
2023/12/08 06:15:25;;;;;;;54.90;30.80;;;;;;;-1.04;100.00;100346.02;178841;1252;46083;-80
2023/12/08 06:19:28;;;;;;;51.70;30.40;;;;;;;-1.06;100.00;100348.68;178154;1252;46057;-80
2023/12/08 06:23:31;;;;;;;61.80;31.20;;;;;;;-1.06;100.00;100349.20;178688;1253;57925;-81
2023/12/08 06:27:35;;;;;;;59.80;35.40;;;;;;;-1.06;100.00;100349.89;179459;1253;45897;-80
2023/12/08 06:31:38;;;;;;;48.30;34.80;;;;;;;-1.04;100.00;100341.30;179195;1252;46112;-81
2023/12/08 06:35:41;;;;;;;57.70;31.60;;;;;;;-1.05;100.00;100335.28;179183;1255;46098;-80
2023/12/08 06:39:44;;;;;;;57.00;30.00;;;;;;;-1.05;100.00;100344.15;178510;1254;46048;-81
2023/12/08 06:43:48;;;;;;;49.20;32.70;;;;;;;-1.10;100.00;100337.34;179191;1253;59634;-79
2023/12/08 06:47:51;;;;;;;44.40;28.80;;;;;;;-1.12;100.00;100327.66;179271;1255;46092;-81
2023/12/08 06:51:54;;;;;;;36.70;22.90;;;;;;;-1.11;100.00;100333.38;178410;1253;45722;-81
2023/12/08 06:55:58;;;;;;;40.30;27.90;;;;;;;-1.14;100.00;100331.55;178434;1252;45936;-81
2023/12/08 07:00:07;;;;;;;54.20;35.50;;;;;;;-1.08;100.00;100329.45;179030;1255;46121;-79
2023/12/08 07:04:10;;;;;;;53.10;34.30;;;;;;;-1.10;100.00;100331.95;181266;1252;57202;-81
2023/12/08 07:08:15;;;;;;;50.70;33.70;;;;;;;-1.06;100.00;100331.99;180103;1252;45949;-81
2023/12/08 07:12:18;;;;;;;56.20;33.50;;;;;;;-0.99;100.00;100335.25;179422;1254;46091;-81
2023/12/08 07:16:21;;;;;;;54.80;37.00;;;;;;;-0.96;100.00;100337.42;179076;1253;46197;-81
2023/12/08 07:20:24;;;;;;;61.20;37.50;;;;;;;-0.92;100.00;100346.84;178574;1255;46188;-81
2023/12/08 07:24:28;;;;;;;74.50;37.10;;;;;;;-0.82;100.00;100336.93;179298;1253;58234;-80
2023/12/08 07:28:31;;;;;;;69.30;40.80;;;;;;;-0.75;100.00;100335.83;178164;1252;45978;-82
2023/12/08 07:32:34;;;;;;;57.20;34.50;;;;;;;-0.71;100.00;100330.13;177961;1257;45980;-82
2023/12/08 07:36:37;;;;;;;66.90;39.40;;;;;;;-0.69;100.00;100334.23;178356;1252;45911;-81
2023/12/08 07:40:40;;;;;;;70.50;36.90;;;;;;;-0.66;100.00;100332.05;178722;1253;46048;-82
2023/12/08 07:44:45;;;;;;;63.90;38.10;;;;;;;-0.63;100.00;100337.88;177926;1253;59303;-81
2023/12/08 07:48:48;;;;;;;74.60;38.80;;;;;;;-0.56;100.00;100339.72;178292;1253;44674;-82
2023/12/08 07:52:54;;;;;;;48.80;29.70;;;;;;;-0.56;100.00;100345.48;179285;1253;46055;-81
2023/12/08 07:57:00;;;;;;;59.70;32.90;;;;;;;-0.63;100.00;100354.94;178595;1253;46133;-81
2023/12/08 08:01:04;;;;;;;49.70;25.30;;;;;;;-0.68;100.00;100365.55;178002;1253;46019;-82
2023/12/08 08:05:07;;;;;;;48.90;29.00;;;;;;;-0.79;100.00;100374.80;178597;1252;58613;-82
2023/12/08 08:09:11;;;;;;;54.90;28.80;;;;;;;-0.79;100.00;100376.36;178597;1252;46361;-82
2023/12/08 08:13:14;;;;;;;53.20;30.30;;;;;;;-0.81;100.00;100380.59;178942;1252;45946;-82
2023/12/08 08:17:18;;;;;;;55.70;33.80;;;;;;;-0.78;100.00;100380.54;179679;1253;44877;-82
2023/12/08 08:21:21;;;;;;;57.00;32.50;;;;;;;-0.78;100.00;100374.23;178302;1257;46023;-81
2023/12/08 08:25:24;;;;;;;54.80;31.60;;;;;;;-0.80;100.00;100372.89;179292;1252;60128;-82
2023/12/08 08:29:28;;;;;;;51.90;31.80;;;;;;;-0.81;100.00;100372.27;178974;1254;45980;-81
2023/12/08 08:33:31;;;;;;;59.10;33.80;;;;;;;-0.82;100.00;100371.41;178552;1253;46109;-80
2023/12/08 08:37:34;;;;;;;59.10;35.10;;;;;;;-0.89;100.00;100371.48;178302;1257;46133;-82
2023/12/08 08:41:37;;;;;;;63.10;35.20;;;;;;;-0.91;100.00;100367.52;178246;1255;46464;-81
2023/12/08 08:45:40;;;;;;;67.40;32.50;;;;;;;-0.95;100.00;100365.07;178793;1252;59233;-81
2023/12/08 08:49:43;;;;;;;53.10;30.30;;;;;;;-1.01;100.00;100346.09;179083;1252;46029;-81
2023/12/08 08:53:49;;;;;;;46.40;27.90;;;;;;;-1.06;100.00;100335.98;179235;1254;46283;-82
2023/12/08 08:57:53;;;;;;;56.10;35.30;;;;;;;-1.08;100.00;100333.45;178603;1254;203503;-82
2023/12/08 09:01:56;;;;;;;51.00;26.40;;;;;;;-1.03;100.00;100337.29;178899;1253;46040;-82
2023/12/08 09:05:59;;;;;;;56.00;32.70;;;;;;;-0.90;100.00;100341.73;179467;1252;59905;-81
2023/12/08 09:10:03;;;;;;;82.80;45.60;;;;;;;-0.75;100.00;100346.48;178162;1253;45866;-82
2023/12/08 09:14:07;;;;;;;75.50;36.70;;;;;;;-0.60;100.00;100340.71;178368;1253;45963;-80
2023/12/08 09:18:10;;;;;;;65.60;38.80;;;;;;;-0.54;100.00;100339.64;178806;1253;45212;-81
2023/12/08 09:22:14;;;;;;;77.40;35.20;;;;;;;-0.40;100.00;100334.81;178088;1257;45987;-82
2023/12/08 09:26:17;;;;;;;77.40;36.80;;;;;;;-0.25;100.00;100325.92;179119;1256;58265;-81
2023/12/08 09:30:21;;;;;;;56.70;29.00;;;;;;;-0.14;100.00;100316.80;178034;1255;46130;-82
2023/12/08 09:34:24;;;;;;;63.50;39.50;;;;;;;-0.04;100.00;100303.71;178810;1252;46183;-81
2023/12/08 09:38:27;;;;;;;73.80;40.10;;;;;;;0.07;100.00;100307.98;178751;1256;45985;-82
2023/12/08 09:42:41;;;;;;;69.70;35.10;;;;;;;0.17;100.00;100300.16;178841;1252;46004;-82
2023/12/08 09:46:45;;;;;;;69.30;38.30;;;;;;;0.30;100.00;100293.54;178153;1257;58251;-81
2023/12/08 09:50:52;;;;;;;82.00;45.00;;;;;;;0.33;100.00;100286.95;177992;1253;46089;-82
2023/12/08 09:54:55;;;;;;;81.40;48.10;;;;;;;0.38;100.00;100297.59;178133;1252;46075;-82
2023/12/08 09:58:59;;;;;;;80.20;44.90;;;;;;;0.34;100.00;100294.23;178448;1252;45967;-83
2023/12/08 10:03:03;;;;;;;79.30;42.60;;;;;;;0.37;100.00;100286.09;178447;1252;46099;-82
2023/12/08 10:07:09;;;;;;;81.90;42.20;;;;;;;0.40;100.00;100271.00;178369;1252;57937;-81
2023/12/08 10:11:15;;;;;;;;;;;;;;;0.44;100.00;100265.27;177739;1258;46010;-82
2023/12/08 10:15:18;;;;;;;87.20;48.30;;;;;;;0.43;100.00;100258.67;177990;1254;45892;-82
2023/12/08 10:19:22;;;;;;;91.60;50.10;;;;;;;0.40;100.00;100254.41;179658;1257;44113;-81
2023/12/08 10:23:25;;;;;;;81.60;42.40;;;;;;;0.42;100.00;100251.04;181196;1252;44159;-82
2023/12/08 10:27:28;;;;;;;81.00;41.10;;;;;;;0.49;100.00;100243.77;180332;1252;58945;-81
2023/12/08 10:31:31;;;;;;;69.10;36.20;;;;;;;0.59;100.00;100241.93;179206;1252;46051;-82
2023/12/08 10:35:38;;;;;;;95.80;48.30;;;;;;;0.65;100.00;100232.98;178346;1254;46211;-82
2023/12/08 10:39:42;;;;;;;;;;;;;;;0.70;100.00;100221.41;178174;1256;46071;-82
2023/12/08 10:43:45;;;;;;;102.90;52.70;;;;;;;0.66;100.00;100212.71;178465;1255;45748;-81
2023/12/08 10:47:49;;;;;;;96.40;50.40;;;;;;;0.70;100.00;100195.43;179037;1252;58263;-82
2023/12/08 10:51:54;;;;;;;102.70;48.80;;;;;;;0.65;100.00;100189.69;178906;1252;46196;-82
2023/12/08 10:56:01;;;;;;;96.10;52.50;;;;;;;0.61;100.00;100192.66;178703;1253;44197;-82
2023/12/08 11:00:17;;;;;;;78.70;35.10;;;;;;;0.59;100.00;100196.58;178623;1253;46044;-82
2023/12/08 11:04:25;;;;;;;86.80;47.00;;;;;;;0.59;100.00;100200.43;178733;1253;45915;-82
2023/12/08 11:08:29;;;;;;;86.20;39.50;;;;;;;0.60;100.00;100204.22;178723;1253;58594;-82
2023/12/08 11:12:38;;;;;;;78.40;44.40;;;;;;;0.59;100.00;100215.27;178696;1253;46419;-82
2023/12/08 11:16:57;;;;;;;80.80;44.30;;;;;;;0.69;100.00;100216.05;179030;1253;46132;-82
2023/12/08 11:21:03;;;;;;;87.30;46.00;;;;;;;0.74;100.00;100213.43;178084;1252;46053;-82
2023/12/08 11:25:12;;;;;;;;;;;;;;;0.69;100.00;100205.09;179149;1256;45983;-82
2023/12/08 11:29:27;;;;;;;79.10;40.40;;;;;;;0.37;100.00;100200.80;178545;1258;59052;-82
2023/12/08 11:33:39;;;;;;;81.50;42.80;;;;;;;0.34;100.00;100201.80;178572;1256;47689;-82
2023/12/08 11:37:45;;;;;;;74.30;32.90;;;;;;;0.43;100.00;100199.00;178205;1257;46231;-82
2023/12/08 11:41:49;;;;;;;89.40;49.50;;;;;;;0.51;100.00;100202.48;178151;1252;46027;-82
2023/12/08 11:45:52;;;;;;;70.30;36.10;;;;;;;0.45;100.00;100201.50;178182;1256;46218;-81
2023/12/08 11:49:56;;;;;;;73.00;35.60;;;;;;;0.42;100.00;100189.59;178243;1255;57622;-82
2023/12/08 11:54:05;;;;;;;104.60;54.20;;;;;;;0.45;100.00;100186.69;178460;1252;44248;-82
2023/12/08 11:58:09;;;;;;;91.50;46.50;;;;;;;0.66;100.00;100174.32;178004;1255;45988;-82
2023/12/08 12:02:12;;;;;;;83.80;49.90;;;;;;;0.79;100.00;100165.05;178412;1253;46386;-82
2023/12/08 12:06:15;;;;;;;97.10;54.10;;;;;;;0.90;100.00;100164.56;178898;1254;46023;-81
2023/12/08 12:10:28;;;;;;;88.20;51.30;;;;;;;0.91;100.00;100162.09;179071;1252;59689;-80
2023/12/08 12:14:35;;;;;;;82.60;49.30;;;;;;;0.87;100.00;100163.83;178631;1253;46435;-81
2023/12/08 12:18:39;;;;;;;84.40;46.20;;;;;;;0.81;100.00;100159.17;178686;1252;45981;-81
2023/12/08 12:22:42;;;;;;;88.70;47.90;;;;;;;0.80;100.00;100154.52;178716;1253;46109;-81
2023/12/08 12:26:45;;;;;;;81.00;45.60;;;;;;;0.81;100.00;100148.52;178119;1253;46169;-81
2023/12/08 12:30:49;;;;;;;99.30;47.20;;;;;;;0.80;100.00;100140.90;179332;1253;58321;-81
2023/12/08 12:34:52;;;;;;;91.80;52.50;;;;;;;0.79;100.00;100140.05;178504;1253;46069;-81
2023/12/08 12:38:56;;;;;;;121.90;67.50;;;;;;;0.80;100.00;100150.52;178476;1253;45975;-82
2023/12/08 12:43:00;;;;;;;103.40;62.60;;;;;;;0.82;100.00;100144.14;178496;1254;46004;-81
2023/12/08 12:47:03;;;;;;;83.00;50.90;;;;;;;0.86;100.00;100133.13;178161;1257;45955;-82
2023/12/08 12:51:07;;;;;;;70.80;41.50;;;;;;;0.86;100.00;100126.50;178483;1255;58618;-81
2023/12/08 12:55:23;;;;;;;81.60;47.50;;;;;;;0.87;100.00;100131.34;179204;1253;46002;-81
2023/12/08 12:59:27;;;;;;;86.90;48.60;;;;;;;0.88;100.00;100128.33;179027;1254;45918;-81
2023/12/08 13:03:30;;;;;;;75.00;45.70;;;;;;;0.91;100.00;100133.98;179307;1252;46085;-82
2023/12/08 13:07:35;;;;;;;54.90;33.40;;;;;;;0.87;100.00;100126.98;178718;1253;46179;-82
2023/12/08 13:11:38;;;;;;;57.10;31.70;;;;;;;0.84;100.00;100128.85;178492;1257;58007;-82
2023/12/08 13:15:42;;;;;;;131.70;71.50;;;;;;;0.81;100.00;100119.56;178778;1254;46002;-82
2023/12/08 13:19:47;;;;;;;68.70;38.80;;;;;;;0.80;100.00;100100.39;178901;1255;45971;-82
2023/12/08 13:23:50;;;;;;;64.60;37.70;;;;;;;0.75;100.00;100093.27;178242;1253;46205;-82
2023/12/08 13:27:54;;;;;;;70.00;39.90;;;;;;;0.72;100.00;100091.83;178521;1253;46005;-81
2023/12/08 13:31:57;;;;;;;73.60;38.70;;;;;;;0.66;100.00;100097.33;179080;1253;59112;-82
2023/12/08 13:36:01;;;;;;;64.20;36.50;;;;;;;0.64;100.00;100109.96;178337;1256;46076;-81
2023/12/08 13:40:04;;;;;;;58.70;40.00;;;;;;;0.63;100.00;100105.50;178066;1252;45962;-82
2023/12/08 13:44:08;;;;;;;66.70;39.40;;;;;;;0.59;100.00;100097.98;179119;1252;45991;-81
2023/12/08 13:48:12;;;;;;;64.00;35.50;;;;;;;0.55;100.00;100093.80;180959;1253;46036;-81
2023/12/08 13:52:15;;;;;;;72.30;46.20;;;;;;;0.54;100.00;100085.80;179451;1257;59242;-82
2023/12/08 13:56:18;;;;;;;67.40;37.10;;;;;;;0.50;100.00;100090.17;179610;1254;44529;-79
2023/12/08 14:00:22;;;;;;;61.60;37.70;;;;;;;0.43;100.00;100093.77;180856;1254;46089;-79
2023/12/08 14:04:26;;;;;;;52.40;32.00;;;;;;;0.38;100.00;100095.90;180802;1253;44145;-79
2023/12/08 14:08:31;;;;;;;57.10;35.30;;;;;;;0.31;100.00;100098.67;180354;1253;45901;-79
2023/12/08 14:12:35;;;;;;;62.40;31.50;;;;;;;0.23;100.00;100096.19;178249;1257;57579;-79
2023/12/08 14:16:38;;;;;;;47.70;32.10;;;;;;;0.19;100.00;100093.92;179759;1253;45306;-80
2023/12/08 14:20:42;;;;;;;57.40;32.30;;;;;;;0.16;100.00;100101.35;180782;1253;46027;-81
2023/12/08 14:24:46;;;;;;;66.60;37.70;;;;;;;0.07;100.00;100098.73;179843;1253;46298;-82
2023/12/08 14:28:49;;;;;;;55.90;33.30;;;;;;;0.07;100.00;100097.36;179512;1252;45912;-84
2023/12/08 14:32:52;;;;;;;56.20;28.30;;;;;;;0.05;100.00;100095.89;181112;1255;57965;-81
2023/12/08 14:36:56;;;;;;;59.20;33.80;;;;;;;-0.02;100.00;100091.61;179170;1254;46237;-81
2023/12/08 14:40:59;;;;;;;67.90;33.40;;;;;;;-0.06;100.00;100087.42;179800;1254;46137;-81
2023/12/08 14:45:03;;;;;;;60.70;31.90;;;;;;;-0.08;100.00;100096.25;179308;1252;46125;-81
2023/12/08 14:49:08;;;;;;;76.50;44.10;;;;;;;-0.11;100.00;100102.45;179228;1257;45998;-81
2023/12/08 14:53:12;;;;;;;66.80;39.20;;;;;;;-0.16;100.00;100100.02;179837;1254;58198;-82
2023/12/08 14:57:16;;;;;;;72.40;43.00;;;;;;;-0.18;100.00;100091.04;179483;1257;45958;-82
2023/12/08 15:01:20;;;;;;;100.10;53.70;;;;;;;-0.21;100.00;100095.68;180529;1253;44236;-82
2023/12/08 15:05:24;;;;;;;91.50;57.80;;;;;;;-0.22;100.00;100104.98;179661;1253;46053;-82
2023/12/08 15:09:27;;;;;;;74.00;43.10;;;;;;;-0.24;100.00;100110.64;180008;1254;47952;-82
2023/12/08 15:13:31;;;;;;;62.80;37.80;;;;;;;-0.26;100.00;100111.23;179479;1256;57586;-82
2023/12/08 15:17:35;;;;;;;63.40;37.10;;;;;;;-0.28;100.00;100113.05;180638;1254;45280;-82
2023/12/08 15:21:39;;;;;;;60.80;35.30;;;;;;;-0.29;100.00;100111.00;179722;1257;44670;-81
2023/12/08 15:25:42;;;;;;;56.00;34.10;;;;;;;-0.32;100.00;100108.30;179827;1256;46178;-81
2023/12/08 15:29:45;;;;;;;67.30;40.90;;;;;;;-0.38;100.00;100113.26;179294;1256;43986;-83
2023/12/08 15:33:49;;;;;;;64.20;35.80;;;;;;;-0.41;100.00;100109.55;178377;1255;59637;-82
2023/12/08 15:37:53;;;;;;;67.40;38.10;;;;;;;-0.48;100.00;100107.73;179692;1256;45991;-83
2023/12/08 15:41:56;;;;;;;58.60;33.30;;;;;;;-0.50;100.00;100106.75;178503;1256;45970;-83
2023/12/08 15:46:03;;;;;;;59.70;32.70;;;;;;;-0.48;100.00;100104.95;178270;1258;46097;-82
2023/12/08 15:50:07;;;;;;;57.50;33.90;;;;;;;-0.45;100.00;100095.41;178472;1257;46460;-82
2023/12/08 15:54:10;;;;;;;59.10;33.50;;;;;;;-0.46;100.00;100092.83;179430;1257;61049;-83
2023/12/08 15:58:13;;;;;;;61.60;34.80;;;;;;;-0.47;100.00;100085.92;179085;1254;45946;-83
2023/12/08 16:02:16;;;;;;;62.70;35.30;;;;;;;-0.45;100.00;100079.23;178907;1254;44654;-81
2023/12/08 16:06:19;;;;;;;47.50;23.60;;;;;;;-0.46;100.00;100083.44;178318;1254;45965;-82
2023/12/08 16:10:23;;;;;;;57.10;34.10;;;;;;;-0.50;100.00;100090.02;179009;1256;46560;-82
2023/12/08 16:14:26;;;;;;;62.20;28.30;;;;;;;-0.49;100.00;100089.27;178355;1257;58242;-82
2023/12/08 16:18:31;;;;;;;63.40;36.40;;;;;;;-0.44;100.00;100081.78;178133;1254;46069;-82
2023/12/08 16:22:34;;;;;;;76.90;39.30;;;;;;;-0.43;100.00;100074.09;178921;1254;45994;-83
2023/12/08 16:26:37;;;;;;;57.00;37.00;;;;;;;-0.41;100.00;100070.71;178438;1254;46300;-82
2023/12/08 16:30:44;;;;;;;57.90;28.20;;;;;;;-0.37;100.00;100072.29;178066;1253;45898;-82
2023/12/08 16:34:47;;;;;;;56.80;30.30;;;;;;;-0.36;100.00;100066.67;178248;1254;57379;-81
2023/12/08 16:38:50;;;;;;;48.50;28.50;;;;;;;-0.34;100.00;100066.26;178706;1253;46051;-82
2023/12/08 16:42:53;;;;;;;42.90;26.40;;;;;;;-0.32;100.00;100067.05;178105;1255;45988;-82
2023/12/08 16:46:56;;;;;;;51.60;27.60;;;;;;;-0.28;100.00;100070.38;178154;1254;46217;-82
2023/12/08 16:51:00;;;;;;;51.10;30.00;;;;;;;-0.25;100.00;100078.60;178349;1255;45988;-82
2023/12/08 16:55:05;;;;;;;52.20;33.10;;;;;;;-0.22;100.00;100086.49;178723;1253;59554;-82
2023/12/08 16:59:09;;;;;;;43.60;31.00;;;;;;;-0.22;100.00;100084.05;178479;1254;45985;-82
2023/12/08 17:03:12;;;;;;;53.50;30.60;;;;;;;-0.19;100.00;100076.95;179090;1254;46000;-81
2023/12/08 17:07:15;;;;;;;85.90;45.00;;;;;;;-0.21;100.00;100074.07;180883;1253;44226;-81
2023/12/08 17:11:19;;;;;;;84.10;46.00;;;;;;;-0.19;100.00;100081.69;179586;1257;45996;-82
2023/12/08 17:15:22;;;;;;;111.90;58.50;;;;;;;-0.23;100.00;100079.55;178707;1257;57183;-82
2023/12/08 17:19:25;;;;;;;64.80;34.10;;;;;;;-0.17;100.00;100090.15;178810;1254;46117;-82
2023/12/08 17:23:28;;;;;;;48.50;26.40;;;;;;;-0.16;100.00;100083.30;178410;1253;45967;-82
2023/12/08 17:27:31;;;;;;;54.00;35.70;;;;;;;-0.19;100.00;100080.27;180055;1254;44029;-82
2023/12/08 17:31:34;;;;;;;63.40;34.20;;;;;;;-0.15;100.00;100080.46;178967;1253;45997;-82
2023/12/08 17:35:38;;;;;;;66.30;37.20;;;;;;;-0.18;100.00;100077.08;179111;1253;60237;-84
2023/12/08 17:39:41;;;;;;;64.00;39.30;;;;;;;-0.08;100.00;100069.73;178059;1253;45997;-85
2023/12/08 17:43:44;;;;;;;62.70;35.30;;;;;;;-0.04;100.00;100073.24;179307;1253;45996;-85
2023/12/08 17:47:50;;;;;;;47.90;33.90;;;;;;;0.00;100.00;100077.42;178116;1254;46100;-84
2023/12/08 17:51:53;;;;;;;53.50;34.20;;;;;;;0.05;100.00;100073.55;177974;1254;45985;-83
2023/12/08 17:55:56;;;;;;;47.70;31.50;;;;;;;0.07;100.00;100075.02;178226;1254;58874;-83
2023/12/08 17:59:59;;;;;;;50.70;30.60;;;;;;;0.22;100.00;100073.04;178494;1254;46116;-84
2023/12/08 18:04:07;;;;;;;52.50;35.60;;;;;;;0.41;100.00;100068.73;178749;1254;45322;-83
2023/12/08 18:08:10;;;;;;;45.60;28.70;;;;;;;0.54;100.00;100061.20;178154;1255;46461;-83